Time;durP1;ratioP1;P1;durP2;ratioP2;P2;SDS_P1;SDS_P2;PMS_P1;PMS_P2;Temp;Humidity;BMP_temperature;BMP_pressure;BME280_temperature;BME280_humidity;BME280_pressure;Samples;Min_cycle;Max_cycle;Signal;HPM_P1;HPM_P2
2021/04/20 00:00:45;;;;;;;3.50;2.00;;;;;;;;;;6372684;22;20010;-90
2021/04/20 00:03:37;;;;;;;3.58;1.85;;;;;;;;;;6342231;22;19999;-91
2021/04/20 00:06:22;;;;;;;3.58;2.00;;;;;;;;;;6361521;22;20085;-91
2021/04/20 00:09:20;;;;;;;3.70;2.00;;;;;;;;;;6361642;22;20014;-91
2021/04/20 00:14:46;;;;;;;7.07;2.10;;;;;;;;;;6356830;22;20021;-91
2021/04/20 00:17:28;;;;;;;;;;;;;;;;;;;;;
2021/04/20 00:20:29;;;;;;;3.92;2.05;;;;;;;;;;6391308;22;19982;-93
2021/04/20 00:23:17;;;;;;;3.97;2.00;;;;;;;;;;6365894;22;20055;-91
2021/04/20 00:32:02;;;;;;;;;;;;;;;;;;6353085;22;20007;-90
2021/04/20 00:34:40;;;;;;;3.22;1.80;;;;;;;;;;6348996;22;19898;-91
2021/04/20 00:37:34;;;;;;;3.80;2.17;;;;;;;;;;6346271;22;20006;-91
2021/04/20 00:40:30;;;;;;;4.05;2.00;;;;;;;;;;6344384;22;20010;-92
2021/04/20 00:43:16;;;;;;;;;;;;;;;;;;;;;
2021/04/20 00:46:24;;;;;;;4.28;2.00;;;;;;;;;;6370839;22;20073;-90
2021/04/20 00:49:08;;;;;;;;;;;;;;;;;;;;;
2021/04/20 00:52:04;;;;;;;;;;;;;;;;;;;;;
2021/04/20 00:55:01;;;;;;;;;;;;;;;;;;;;;
2021/04/20 00:57:34;;;;;;;3.88;2.03;;;;;;;;;;6373028;22;20082;-90
2021/04/20 01:00:24;;;;;;;;;;;;;;;;;;;;;
2021/04/20 01:06:01;;;;;;;4.38;2.05;;;;;;;;;;6353636;22;20012;-90
2021/04/20 01:09:06;;;;;;;3.60;2.00;;;;;;;;;;6342941;22;20014;-89
2021/04/20 01:14:55;;;;;;;3.67;1.90;;;;;;;;;;6304201;22;20321;-90
2021/04/20 01:17:55;;;;;;;;;;;;;;;;;;;;;
2021/04/20 01:24:01;;;;;;;4.15;2.20;;;;;;;;;;6381638;22;20025;-90
2021/04/20 01:26:38;;;;;;;3.95;1.95;;;;;;;;;;6352035;22;20415;-90
2021/04/20 01:32:16;;;;;;;4.13;1.95;;;;;;;;;;6304390;22;20002;-90
2021/04/20 01:35:06;;;;;;;3.10;1.88;;;;;;;;;;6343103;22;20362;-90
2021/04/20 01:44:10;;;;;;;;;;;;;;;;;;;;;
2021/04/20 01:46:55;;;;;;;;;;;;;;;;;;;;;
2021/04/20 01:49:42;;;;;;;3.63;2.03;;;;;;;;;;6348927;22;20081;-90
2021/04/20 01:52:43;;;;;;;3.90;1.90;;;;;;;;;;6344893;22;20033;-90
2021/04/20 01:58:26;;;;;;;3.22;1.85;;;;;;;;;;6320102;22;20048;-91
2021/04/20 02:01:29;;;;;;;3.50;2.00;;;;;;;;;;6343245;22;19998;-91
2021/04/20 02:07:13;;;;;;;3.70;2.00;;;;;;;;;;6275490;22;20015;-90
2021/04/20 02:15:46;;;;;;;3.90;2.08;;;;;;;;;;6359218;22;19999;-91
2021/04/20 02:18:38;;;;;;;4.10;2.08;;;;;;;;;;6342374;22;20418;-91
2021/04/20 02:21:39;;;;;;;5.00;2.50;;;;;;;;;;6344546;22;20006;-92
2021/04/20 02:30:13;;;;;;;4.93;1.98;;;;;;;;;;6333966;22;20013;-90
2021/04/20 02:33:18;;;;;;;4.32;2.20;;;;;;;;;;6344055;22;19995;-91
2021/04/20 02:35:56;;;;;;;3.78;2.33;;;;;;;;;;6371693;22;20428;-91
2021/04/20 02:38:32;;;;;;;3.67;2.10;;;;;;;;;;6343182;22;20012;-92
2021/04/20 02:41:05;;;;;;;3.97;2.15;;;;;;;;;;6371386;22;20026;-91
2021/04/20 02:44:03;;;;;;;3.63;2.00;;;;;;;;;;6342253;22;20298;-91
2021/04/20 02:46:59;;;;;;;;;;;;;;;;;;;;;
2021/04/20 02:49:38;;;;;;;4.60;2.47;;;;;;;;;;6394179;22;19998;-91
2021/04/20 02:52:10;;;;;;;3.78;2.15;;;;;;;;;;6331241;22;20065;-91
2021/04/20 02:54:44;;;;;;;4.07;2.20;;;;;;;;;;6346113;22;20030;-90
2021/04/20 03:00:34;;;;;;;4.13;2.05;;;;;;;;;;6354673;22;20089;-90
2021/04/20 03:03:31;;;;;;;3.67;2.00;;;;;;;;;;6243497;23;20004;-91
2021/04/20 03:06:26;;;;;;;4.07;2.17;;;;;;;;;;6353789;22;20007;-89
2021/04/20 03:09:13;;;;;;;;;;;;;;;;;;;;;
2021/04/20 03:11:55;;;;;;;4.35;2.28;;;;;;;;;;6370607;22;20498;-91
2021/04/20 03:23:50;;;;;;;4.05;2.10;;;;;;;;;;6236739;23;20054;-90
2021/04/20 03:26:39;;;;;;;4.10;2.33;;;;;;;;;;6334937;22;20007;-92
2021/04/20 03:29:28;;;;;;;4.10;2.13;;;;;;;;;;6329080;22;20341;-90
2021/04/20 03:32:09;;;;;;;4.00;2.00;;;;;;;;;;6343038;22;20010;-90
2021/04/20 03:35:17;;;;;;;;;;;;;;;;;;;;;
2021/04/20 03:47:38;;;;;;;;;;;;;;;;;;;;;
2021/04/20 03:50:30;;;;;;;3.78;2.15;;;;;;;;;;6338072;22;20462;-90
2021/04/20 03:56:31;;;;;;;4.45;2.35;;;;;;;;;;6305915;22;20464;-90
2021/04/20 03:59:31;;;;;;;4.93;2.60;;;;;;;;;;6342324;22;20036;-90
2021/04/20 04:02:36;;;;;;;;;;;;;;;;;;;;;
2021/04/20 04:08:08;;;;;;;4.28;2.30;;;;;;;;;;6306317;22;20011;-90
2021/04/20 04:11:07;;;;;;;;;;;;;;;;;;;;;
2021/04/20 04:13:39;;;;;;;4.00;2.17;;;;;;;;;;6336122;22;20083;-90
2021/04/20 04:16:24;;;;;;;4.13;2.22;;;;;;;;;;6311791;22;20306;-90
2021/04/20 04:22:09;;;;;;;3.83;2.10;;;;;;;;;;6258956;22;20090;-91
2021/04/20 04:24:55;;;;;;;6.97;2.30;;;;;;;;;;6309553;22;19999;-91
2021/04/20 04:27:45;;;;;;;3.88;2.10;;;;;;;;;;6336201;22;20083;-90
2021/04/20 04:33:30;;;;;;;4.25;2.17;;;;;;;;;;6337894;22;20007;-90
2021/04/20 04:36:20;;;;;;;4.35;2.20;;;;;;;;;;6310976;22;20013;-93
2021/04/20 04:39:10;;;;;;;4.80;2.13;;;;;;;;;;6328220;22;19999;-89
2021/04/20 04:42:14;;;;;;;;;;;;;;;;;;;;;
2021/04/20 04:44:38;;;;;;;4.65;2.42;;;;;;;;;;6366092;22;20052;-89
2021/04/20 04:47:45;;;;;;;4.80;2.45;;;;;;;;;;6369123;22;20039;-89
2021/04/20 04:59:11;;;;;;;4.28;2.42;;;;;;;;;;6356015;22;20003;-89
2021/04/20 05:02:10;;;;;;;;;;;;;;;;;;;;;
2021/04/20 05:07:37;;;;;;;4.00;2.20;;;;;;;;;;6368491;22;20010;-91
2021/04/20 05:10:13;;;;;;;3.92;2.25;;;;;;;;;;6343273;22;19999;-89
2021/04/20 05:16:01;;;;;;;4.45;2.30;;;;;;;;;;6341186;22;20010;-89
2021/04/20 05:18:53;;;;;;;4.32;2.10;;;;;;;;;;6347958;22;20048;-92
2021/04/20 05:21:47;;;;;;;3.97;2.03;;;;;;;;;;6343803;22;20014;-89
2021/04/20 05:24:40;;;;;;;5.32;2.60;;;;;;;;;;6344099;22;20033;-89
2021/04/20 05:27:36;;;;;;;5.00;2.70;;;;;;;;;;6344540;22;20651;-92
2021/04/20 05:33:44;;;;;;;;;;;;;;;;;;;;;
2021/04/20 05:36:30;;;;;;;4.78;2.70;;;;;;;;;;6371315;22;20078;-90
2021/04/20 05:39:26;;;;;;;5.45;2.72;;;;;;;;;;6343599;22;20006;-89
2021/04/20 05:42:29;;;;;;;;;;;;;;;;;;;;;
2021/04/20 05:45:15;;;;;;;;;;;;;;;;;;;;;
2021/04/20 05:48:08;;;;;;;4.90;3.05;;;;;;;;;;6371691;22;20094;-90
2021/04/20 05:51:11;;;;;;;;;;;;;;;;;;;;;
2021/04/20 05:53:57;;;;;;;5.65;2.70;;;;;;;;;;6321578;22;20102;-89
2021/04/20 05:56:29;;;;;;;4.88;2.95;;;;;;;;;;6343314;22;20005;-89
2021/04/20 06:02:16;;;;;;;5.35;3.28;;;;;;;;;;6359120;22;20271;-89
2021/04/20 06:04:56;;;;;;;;;;;;;;;;;;;;;
2021/04/20 06:10:42;;;;;;;;;;;;;;;;;;;;;
2021/04/20 06:13:10;;;;;;;4.97;2.58;;;;;;;;;;6370119;22;20073;-91
2021/04/20 06:15:58;;;;;;;7.10;3.05;;;;;;;;;;6343175;22;20026;-91
2021/04/20 06:18:34;;;;;;;6.80;3.28;;;;;;;;;;6369301;22;20002;-92
2021/04/20 06:24:38;;;;;;;6.55;3.65;;;;;;;;;;6304526;22;20006;-90
2021/04/20 06:30:02;;;;;;;6.75;3.60;;;;;;;;;;6370047;22;20059;-90
2021/04/20 06:32:51;;;;;;;6.28;3.15;;;;;;;;;;6343024;22;20006;-90
2021/04/20 06:35:48;;;;;;;9.43;3.60;;;;;;;;;;6342369;22;20066;-90
2021/04/20 06:38:24;;;;;;;7.97;3.40;;;;;;;;;;6334567;22;20006;-90
2021/04/20 06:41:23;;;;;;;6.95;3.30;;;;;;;;;;6341224;22;20081;-91
2021/04/20 06:43:55;;;;;;;6.38;3.03;;;;;;;;;;6335655;22;20014;-91
2021/04/20 06:46:38;;;;;;;5.95;3.78;;;;;;;;;;6341800;22;20078;-91
2021/04/20 06:49:11;;;;;;;7.47;3.20;;;;;;;;;;6369168;22;20013;-90
2021/04/20 06:52:09;;;;;;;6.35;3.33;;;;;;;;;;6340749;22;20030;-91
2021/04/20 07:01:08;;;;;;;9.68;3.75;;;;;;;;;;6351520;22;20005;-90
2021/04/20 07:03:49;;;;;;;8.45;2.70;;;;;;;;;;6341343;22;20003;-91
2021/04/20 07:06:18;;;;;;;7.95;4.00;;;;;;;;;;6340997;22;20007;-90
2021/04/20 07:09:02;;;;;;;7.38;3.80;;;;;;;;;;6341183;22;20455;-90
2021/04/20 07:11:43;;;;;;;5.28;2.45;;;;;;;;;;6342371;22;20002;-90
2021/04/20 07:14:29;;;;;;;7.78;3.42;;;;;;;;;;6342215;22;20002;-89
2021/04/20 07:17:23;;;;;;;9.32;3.58;;;;;;;;;;6342231;22;20418;-90
2021/04/20 07:20:03;;;;;;;8.93;3.50;;;;;;;;;;6341585;22;19998;-90
2021/04/20 07:25:44;;;;;;;;;;;;;;;;;;;;;
2021/04/20 07:28:41;;;;;;;6.20;3.17;;;;;;;;;;6369800;22;20097;-90
2021/04/20 07:34:22;;;;;;;7.65;2.65;;;;;;;;;;6356813;22;20037;-90
2021/04/20 07:37:15;;;;;;;5.88;3.17;;;;;;;;;;6369521;22;20374;-90
2021/04/20 07:39:55;;;;;;;4.50;2.53;;;;;;;;;;6341985;22;20418;-91
2021/04/20 07:42:51;;;;;;;7.47;3.00;;;;;;;;;;6339783;22;20021;-90
2021/04/20 07:45:33;;;;;;;4.05;2.45;;;;;;;;;;6368426;22;20022;-90
2021/04/20 07:48:27;;;;;;;;;;;;;;;;;;;;;
2021/04/20 07:51:32;;;;;;;;;;;;;;;;;;;;;
2021/04/20 08:00:38;;;;;;;5.32;2.83;;;;;;;;;;6234672;23;20451;-90
2021/04/20 08:06:37;;;;;;;5.18;2.28;;;;;;;;;;6227623;23;20000;-90
2021/04/20 08:09:25;;;;;;;6.93;3.20;;;;;;;;;;6216770;23;20487;-89
2021/04/20 08:12:12;;;;;;;;;;;;;;;;;;;;;
2021/04/20 08:15:08;;;;;;;3.70;2.20;;;;;;;;;;6243238;23;20087;-90
2021/04/20 08:18:13;;;;;;;5.18;2.55;;;;;;;;;;6189612;22;20010;-89
2021/04/20 08:21:12;;;;;;;6.07;2.42;;;;;;;;;;6368945;22;20018;-90
2021/04/20 08:26:59;;;;;;;;;;;;;;;;;;;;;
2021/04/20 08:35:46;;;;;;;5.85;2.70;;;;;;;;;;6369741;22;19999;-90
2021/04/20 08:38:21;;;;;;;3.53;2.38;;;;;;;;;;6345354;22;20516;-89
2021/04/20 08:43:59;;;;;;;7.13;2.70;;;;;;;;;;6369150;22;20093;-89
2021/04/20 08:47:09;;;;;;;7.18;2.95;;;;;;;;;;6342013;22;20026;-89
2021/04/20 08:50:04;;;;;;;4.80;2.00;;;;;;;;;;6369191;22;20011;-89
2021/04/20 08:55:53;;;;;;;4.05;2.33;;;;;;;;;;6364519;22;20006;-91
2021/04/20 09:08:17;;;;;;;4.53;2.20;;;;;;;;;;6371918;22;20094;-93
2021/04/20 09:10:52;;;;;;;4.53;2.42;;;;;;;;;;6342580;22;20002;-90
2021/04/20 09:16:39;;;;;;;5.25;2.67;;;;;;;;;;6353525;22;20003;-91
2021/04/20 09:19:21;;;;;;;;;;;;;;;;;;;;;
2021/04/20 09:22:16;;;;;;;;;;;;;;;;;;;;;
2021/04/20 09:25:13;;;;;;;;;;;;;;;;;;;;;
2021/04/20 09:28:09;;;;;;;8.00;2.70;;;;;;;;;;6369790;22;20087;-90
2021/04/20 09:30:58;;;;;;;5.15;2.42;;;;;;;;;;6336988;22;19999;-90
2021/04/20 09:33:31;;;;;;;4.63;1.90;;;;;;;;;;6342037;22;20005;-89
2021/04/20 09:36:24;;;;;;;3.97;2.00;;;;;;;;;;6341698;22;19998;-90
2021/04/20 09:45:06;;;;;;;;;;;;;;;;;;;;;
2021/04/20 09:47:45;;;;;;;5.00;1.95;;;;;;;;;;6370675;22;20089;-91
2021/04/20 09:50:33;;;;;;;4.47;2.50;;;;;;;;;;6342842;22;20093;-90
2021/04/20 09:56:40;;;;;;;;;;;;;;;;;;;;;
2021/04/20 09:59:33;;;;;;;;;;;;;;;;;;;;;
2021/04/20 10:02:18;;;;;;;;;;;;;;;;;;;;;
2021/04/20 10:05:24;;;;;;;;;;;;;;;;;;;;;
2021/04/20 10:11:05;;;;;;;;;;;;;;;;;;;;;
2021/04/20 10:13:41;;;;;;;3.28;1.90;;;;;;;;;;6371674;22;20086;-90
2021/04/20 10:16:57;;;;;;;;;;;;;;;;;;;;;
2021/04/20 10:19:32;;;;;;;4.70;2.40;;;;;;;;;;6248799;23;20087;-90
2021/04/20 10:22:28;;;;;;;4.35;2.10;;;;;;;;;;6335500;22;20038;-90
2021/04/20 10:25:16;;;;;;;3.92;2.08;;;;;;;;;;6370406;22;20394;-91
2021/04/20 10:28:36;;;;;;;3.03;1.75;;;;;;;;;;6300943;22;20044;-90
2021/04/20 10:30:45;;;;;;;;;;;;;;;;;;;;;
2021/04/20 10:33:23;;;;;;;;;;;;;;;;;;;;;
2021/04/20 10:36:19;;;;;;;;;;;;;;;;;;;;;
2021/04/20 10:38:56;;;;;;;3.30;2.00;;;;;;;;;;6382488;22;20002;-90
2021/04/20 10:41:26;;;;;;;4.45;1.95;;;;;;;;;;6368182;22;19994;-90
2021/04/20 10:44:39;;;;;;;4.00;2.30;;;;;;;;;;6364957;22;20029;-91
2021/04/20 10:47:17;;;;;;;4.22;2.00;;;;;;;;;;6265607;22;20008;-91
2021/04/20 10:50:13;;;;;;;;;;;;;;;;;;;;;
2021/04/20 10:56:07;;;;;;;3.83;2.20;;;;;;;;;;6395507;22;20010;-90
2021/04/20 11:15:38;;;;;;;5.13;2.25;;;;;;;;;;6364967;22;20022;-94
2021/04/20 11:17:52;;;;;;;3.42;1.77;;;;;;;;;;6353340;22;19995;-91
2021/04/20 11:20:52;;;;;;;;;;;;;;;;;;;;;
2021/04/20 11:23:35;;;;;;;3.05;1.70;;;;;;;;;;6365554;22;20006;-92
2021/04/20 11:26:41;;;;;;;;;;;;;;;;;;;;;
2021/04/20 11:29:16;;;;;;;6.45;2.00;;;;;;;;;;6343421;22;20003;-95
2021/04/20 11:32:27;;;;;;;4.88;2.03;;;;;;;;;;6337642;22;20021;-94
2021/04/20 11:35:19;;;;;;;3.35;1.77;;;;;;;;;;6307001;22;20009;-92
2021/04/20 11:38:08;;;;;;;3.90;2.03;;;;;;;;;;6338325;22;20108;-94
2021/04/20 11:41:07;;;;;;;;;;;;;;;;;;;;;
2021/04/20 11:44:05;;;;;;;3.35;1.75;;;;;;;;;;6343663;22;20018;-92
2021/04/20 11:49:49;;;;;;;4.65;2.50;;;;;;;;;;6335990;22;20010;-90
2021/04/20 11:52:30;;;;;;;3.88;2.03;;;;;;;;;;6297898;22;20003;-93
2021/04/20 11:58:11;;;;;;;3.78;1.75;;;;;;;;;;6313983;22;20006;-90
2021/04/20 12:00:57;;;;;;;;;;;;;;;;;;;;;
2021/04/20 12:06:56;;;;;;;;;;;;;;;;;;;;;
2021/04/20 12:09:26;;;;;;;4.03;2.20;;;;;;;;;;6292300;22;20093;-90
2021/04/20 12:15:01;;;;;;;5.77;2.10;;;;;;;;;;6338880;22;20011;-90
2021/04/20 12:17:38;;;;;;;5.63;2.60;;;;;;;;;;6312291;22;20231;-90
2021/04/20 12:20:36;;;;;;;6.10;3.08;;;;;;;;;;6312506;22;20010;-91
2021/04/20 12:23:21;;;;;;;;;;;;;;;;;;;;;
2021/04/20 12:26:16;;;;;;;;;;;;;;;;;;;;;
2021/04/20 12:29:30;;;;;;;5.03;2.50;;;;;;;;;;6339712;22;20529;-92
2021/04/20 12:35:08;;;;;;;4.32;2.67;;;;;;;;;;6333782;22;20005;-91
2021/04/20 12:46:48;;;;;;;;;;;;;;;;;;;;;
2021/04/20 12:49:34;;;;;;;;;;;;;;;;;;;;;
2021/04/20 14:15:53;;;;;;;12.48;6.03;;;;;;;;;;6288398;22;20043;-93
2021/04/20 14:18:33;;;;;;;13.25;5.80;;;;;;;;;;6306533;22;20011;-92
2021/04/20 14:21:39;;;;;;;;;;;;;;;;;;;;;
2021/04/20 14:28:15;;;;;;;8.20;4.75;;;;;;;;;;6296862;22;20007;-92
2021/04/20 14:30:39;;;;;;;;;;;;;;;;;;;;;
2021/04/20 14:33:09;;;;;;;7.97;4.35;;;;;;;;;;6307735;22;20082;-92
2021/04/20 14:36:08;;;;;;;;;;;;;;;;;;;;;
2021/04/20 14:39:04;;;;;;;;;;;;;;;;;;;;;
2021/04/20 14:42:09;;;;;;;;;;;;;;;;;;;;;
2021/04/20 14:45:15;;;;;;;;;;;;;;;;;;;;;
2021/04/20 14:47:46;;;;;;;9.82;5.60;;;;;;;;;;6308004;22;20090;-91
2021/04/20 14:50:42;;;;;;;11.70;7.10;;;;;;;;;;6306474;22;20023;-91
2021/04/20 14:56:26;;;;;;;10.45;5.75;;;;;;;;;;6179713;23;20005;-92
2021/04/20 14:59:07;;;;;;;11.35;6.47;;;;;;;;;;6269992;22;20003;-92
2021/04/20 15:01:59;;;;;;;13.32;5.32;;;;;;;;;;6306389;22;20018;-91
2021/04/20 15:04:55;;;;;;;;;;;;;;;;;;;;;
2021/04/20 15:07:44;;;;;;;9.73;6.18;;;;;;;;;;6302111;22;20385;-91
2021/04/20 15:10:35;;;;;;;;;;;;;;;;;;;;;
2021/04/20 15:13:47;;;;;;;10.77;6.70;;;;;;;;;;6309016;22;20486;-91
2021/04/20 15:16:50;;;;;;;13.70;7.22;;;;;;;;;;6182201;23;20060;-92
2021/04/20 15:19:47;;;;;;;12.95;7.72;;;;;;;;;;6186383;22;20041;-90
2021/04/20 15:22:37;;;;;;;16.95;9.65;;;;;;;;;;6305286;22;19999;-91
2021/04/20 15:25:37;;;;;;;;;;;;;;;;;;;;;
2021/04/20 15:28:54;;;;;;;;;;;;;;;;;;;;;
2021/04/20 15:31:41;;;;;;;15.05;8.77;;;;;;;;;;6299620;22;20138;-91
2021/04/20 15:34:12;;;;;;;11.15;6.68;;;;;;;;;;6291426;22;20010;-91
2021/04/20 15:37:07;;;;;;;10.33;6.43;;;;;;;;;;6306112;22;19995;-92
2021/04/20 15:43:08;;;;;;;;;;;;;;;;;;;;;
2021/04/20 15:45:58;;;;;;;7.78;4.55;;;;;;;;;;6307390;22;20086;-92
2021/04/20 15:48:56;;;;;;;7.68;4.63;;;;;;;;;;6289462;22;20516;-90
2021/04/20 15:54:55;;;;;;;10.00;5.85;;;;;;;;;;6307649;22;20094;-92
2021/04/20 15:57:35;;;;;;;;;;;;;;;;;;;;;
2021/04/20 16:00:35;;;;;;;14.27;5.47;;;;;;;;;;6305738;22;20063;-91
2021/04/20 16:03:11;;;;;;;8.85;5.25;;;;;;;;;;6299023;22;20002;-92
2021/04/20 16:05:57;;;;;;;9.52;5.05;;;;;;;;;;6305406;22;20051;-93
2021/04/20 16:08:54;;;;;;;7.72;4.47;;;;;;;;;;6331087;22;20114;-92
2021/04/20 16:11:31;;;;;;;7.70;3.85;;;;;;;;;;6306113;22;20037;-92
2021/04/20 16:17:09;;;;;;;8.50;5.05;;;;;;;;;;6274119;22;20049;-91
2021/04/20 16:19:42;;;;;;;8.52;4.72;;;;;;;;;;6274269;22;20012;-91
2021/04/20 16:22:22;;;;;;;5.88;3.15;;;;;;;;;;6275112;22;20101;-92
2021/04/20 16:25:19;;;;;;;;;;;;;;;;;;;;;
2021/04/20 16:28:12;;;;;;;8.85;4.03;;;;;;;;;;6268404;22;20086;-91
2021/04/20 16:31:15;;;;;;;8.52;3.95;;;;;;;;;;6252102;22;20401;-91
2021/04/20 16:33:58;;;;;;;8.32;4.55;;;;;;;;;;6245236;22;20012;-91
2021/04/20 16:40:12;;;;;;;14.43;8.57;;;;;;;;;;6306731;22;19999;-92
2021/04/20 16:42:50;;;;;;;6.47;3.65;;;;;;;;;;6305517;22;20721;-91
2021/04/20 16:45:53;;;;;;;8.80;4.75;;;;;;;;;;6303141;22;20328;-91
2021/04/20 16:48:38;;;;;;;5.25;2.92;;;;;;;;;;6303134;22;20021;-92
2021/04/20 16:51:28;;;;;;;;;;;;;;;;;;;;;
2021/04/20 16:54:45;;;;;;;;;;;;;;;;;;;;;
2021/04/20 16:57:32;;;;;;;5.40;3.30;;;;;;;;;;6306218;22;20498;-91
2021/04/20 17:00:35;;;;;;;;;;;;;;;;;;;;;
2021/04/20 17:03:26;;;;;;;13.43;7.93;;;;;;;;;;6307167;22;20070;-91
2021/04/20 17:06:28;;;;;;;;;;;;;;;;;;;;;
2021/04/20 17:27:54;;;;;;;5.65;2.95;;;;;;;;;;6297640;22;20030;-90
2021/04/20 17:30:46;;;;;;;11.43;5.38;;;;;;;;;;6249557;22;20435;-90
2021/04/20 17:33:51;;;;;;;13.57;6.60;;;;;;;;;;6261516;22;20030;-91
2021/04/20 17:36:55;;;;;;;6.95;3.85;;;;;;;;;;6308626;22;20027;-89
2021/04/20 17:39:37;;;;;;;7.15;4.65;;;;;;;;;;6308024;22;20031;-91
2021/04/20 17:48:40;;;;;;;7.63;4.57;;;;;;;;;;6292363;22;20047;-90
2021/04/20 17:51:45;;;;;;;;;;;;;;;;;;;;;
2021/04/20 17:57:25;;;;;;;;;;;;;;;;;;;;;
2021/04/20 18:00:53;;;;;;;10.90;5.15;;;;;;;;;;6214714;23;20004;-90
2021/04/20 18:06:52;;;;;;;6.32;3.72;;;;;;;;;;6260236;22;20050;-89
2021/04/20 18:09:31;;;;;;;7.57;3.80;;;;;;;;;;6278788;22;20079;-92
2021/04/20 20:23:07;;;;;;;6.93;4.28;;;;;;;;;;6303907;22;20029;-91
2021/04/20 20:41:15;;;;;;;7.05;3.83;;;;;;;;;;6344786;22;20002;-92
2021/04/20 20:44:36;;;;;;;;;;;;;;;;;;;;;
2021/04/20 20:53:48;;;;;;;;;;;;;;;;;;;;;
2021/04/20 20:57:08;;;;;;;;;;;;;;;;;;;;;
2021/04/20 20:59:40;;;;;;;7.03;4.10;;;;;;;;;;6400677;22;20325;-90
2021/04/20 21:02:29;;;;;;;6.13;4.13;;;;;;;;;;6372189;22;20009;-90
2021/04/20 21:11:32;;;;;;;7.07;4.10;;;;;;;;;;6403815;22;20025;-92
2021/04/20 21:14:13;;;;;;;7.65;4.30;;;;;;;;;;6370344;22;20002;-91
2021/04/20 21:17:00;;;;;;;7.35;3.72;;;;;;;;;;6347265;22;20006;-91
2021/04/20 21:25:30;;;;;;;6.13;3.95;;;;;;;;;;6373552;22;20010;-90
2021/04/20 21:28:19;;;;;;;7.10;3.63;;;;;;;;;;6403668;22;20341;-90
2021/04/20 21:31:16;;;;;;;;;;;;;;;;;;;;;
2021/04/20 21:34:08;;;;;;;6.28;3.55;;;;;;;;;;6388065;22;20085;-91
2021/04/20 21:36:55;;;;;;;6.57;4.10;;;;;;;;;;6370227;22;20014;-91
2021/04/20 21:39:56;;;;;;;13.07;5.95;;;;;;;;;;6374497;22;20006;-92
2021/04/20 21:42:34;;;;;;;26.83;10.43;;;;;;;;;;6375309;22;20135;-91
2021/04/20 21:45:15;;;;;;;7.40;4.53;;;;;;;;;;6370157;22;20002;-91
2021/04/20 21:48:08;;;;;;;5.93;3.88;;;;;;;;;;6346474;22;20056;-91
2021/04/20 21:51:10;;;;;;;;;;;;;;;;;;;;;
2021/04/20 21:53:59;;;;;;;10.07;4.30;;;;;;;;;;6393516;22;20088;-92
2021/04/20 21:56:48;;;;;;;8.27;3.83;;;;;;;;;;6368849;22;19998;-91
2021/04/20 21:59:26;;;;;;;8.70;4.65;;;;;;;;;;6327836;22;20388;-91
2021/04/20 22:02:22;;;;;;;6.78;3.88;;;;;;;;;;6369652;22;20002;-91
2021/04/20 22:08:00;;;;;;;8.63;4.53;;;;;;;;;;6386588;22;20429;-90
2021/04/20 22:19:39;;;;;;;;;;;;;;;;;;;;;
2021/04/20 22:22:10;;;;;;;8.13;4.40;;;;;;;;;;6371332;22;20081;-90
2021/04/20 22:28:16;;;;;;;5.88;3.67;;;;;;;;;;6305633;22;20065;-92
2021/04/20 22:31:08;;;;;;;7.68;3.75;;;;;;;;;;6297367;22;20082;-92
2021/04/20 22:34:04;;;;;;;;;;;;;;;;;;;;;
2021/04/20 22:37:36;;;;;;;;;;;;;;;;;;;;;
2021/04/20 22:40:14;;;;;;;6.40;3.85;;;;;;;;;;6336045;22;20003;-90
2021/04/20 22:45:52;;;;;;;6.88;4.22;;;;;;;;;;6286542;22;20011;-92
2021/04/20 22:48:38;;;;;;;7.82;4.22;;;;;;;;;;6349166;22;20006;-91
2021/04/20 22:57:26;;;;;;;7.83;4.47;;;;;;;;;;6267417;22;20007;-90
2021/04/20 23:00:31;;;;;;;6.65;4.30;;;;;;;;;;6342537;22;20254;-90
2021/04/20 23:03:26;;;;;;;7.03;4.10;;;;;;;;;;6342611;22;20062;-91
2021/04/20 23:09:56;;;;;;;9.05;4.85;;;;;;;;;;6332591;22;20018;-90
2021/04/20 23:18:43;;;;;;;9.23;5.03;;;;;;;;;;6353088;22;20437;-89
2021/04/20 23:24:35;;;;;;;7.65;4.82;;;;;;;;;;6352566;22;20015;-89
2021/04/20 23:27:37;;;;;;;;;;;;;;;;;;;;;
2021/04/20 23:30:11;;;;;;;7.68;4.57;;;;;;;;;;6370279;22;20098;-89
2021/04/20 23:36:23;;;;;;;7.25;4.57;;;;;;;;;;6356885;22;20045;-89
2021/04/20 23:38:59;;;;;;;8.77;4.20;;;;;;;;;;6368428;22;20006;-89
2021/04/20 23:47:52;;;;;;;6.70;4.43;;;;;;;;;;6272401;22;20406;-90
2021/04/20 23:50:40;;;;;;;8.80;4.82;;;;;;;;;;6334358;22;20086;-90
2021/04/20 23:56:48;;;;;;;7.95;5.28;;;;;;;;;;6333571;22;20387;-90
2021/04/20 23:59:25;;;;;;;;;;;;;;;;;;;;;
